Quincy, Illinois
Current Conditions -  °F | °C
As of 12:54 AM on Saturday 25 Oct 2014 (Local Time) from KUIN Reporting Station
Clear Clear  
Wind Chill: 60°   Ceiling: Unl
Heat Index: 60°   Visibility: 9mi
Dew Point: 58°   Wind: 8mph
Humidity: 93%   Direction: 250°WSW
Pressure: 29.96"   Gusts: NA
Location:  39.94°N, 91.39°W
Report Text: KUIN 250554Z AUTO 25007KT 9SM CLR 16/14 A2996 RMK AO2 SLP143 T01560144 10183 20150 402110111 55002
Loading
Personal Weather Stations






























Interactive Weather Map
Tropical Storm Tracking
New forecast layout! Learn more

10-Day Weather Forecast

Advertisements
Track Severe Weather on mobile